createdAt,value
2019-02-16T00:02:23.723Z,7.70
2019-02-16T00:04:51.119Z,7.60
2019-02-16T00:07:18.494Z,7.60
2019-02-16T00:09:45.909Z,7.50
2019-02-16T00:12:13.273Z,7.50
2019-02-16T00:14:40.694Z,7.50
2019-02-16T00:17:08.073Z,7.40
2019-02-16T00:19:35.403Z,7.40
2019-02-16T00:22:02.756Z,7.30
2019-02-16T00:24:30.145Z,7.40
2019-02-16T00:26:57.510Z,7.30
2019-02-16T00:29:24.814Z,7.30
2019-02-16T00:31:52.154Z,7.30
2019-02-16T00:34:19.590Z,7.30
2019-02-16T00:36:47.018Z,7.20
2019-02-16T00:39:14.442Z,7.20
2019-02-16T00:41:41.856Z,7.20
2019-02-16T00:44:09.182Z,7.20
2019-02-16T00:46:36.583Z,7.20
2019-02-16T00:49:03.883Z,7.10
2019-02-16T00:51:31.211Z,7.10
2019-02-16T00:53:59.184Z,7.20
2019-02-16T00:56:26.505Z,7.10
2019-02-16T00:58:53.821Z,7.10
2019-02-16T01:01:21.233Z,7.10
2019-02-16T01:03:48.547Z,7.00
2019-02-16T01:06:15.991Z,7.10
2019-02-16T01:08:43.357Z,7.00
2019-02-16T01:11:10.695Z,7.00
2019-02-16T01:13:38.209Z,7.00
2019-02-16T01:16:05.508Z,6.90
2019-02-16T01:18:32.843Z,6.90
2019-02-16T01:21:00.212Z,6.90
2019-02-16T01:23:27.933Z,6.90
2019-02-16T01:25:55.322Z,6.80
2019-02-16T01:28:22.600Z,6.80
2019-02-16T01:30:50.258Z,6.80
2019-02-16T01:33:17.697Z,6.80
2019-02-16T01:35:45.088Z,6.70
2019-02-16T01:38:12.413Z,6.80
2019-02-16T01:40:39.778Z,6.70
2019-02-16T01:43:07.032Z,6.60
2019-02-16T01:45:34.327Z,6.60
2019-02-16T01:48:01.642Z,6.60
2019-02-16T01:50:28.915Z,6.60
2019-02-16T01:52:56.346Z,6.60
2019-02-16T01:55:24.104Z,6.60
2019-02-16T01:57:51.372Z,6.60
2019-02-16T02:00:18.701Z,6.60
2019-02-16T02:02:45.991Z,6.60
2019-02-16T02:05:13.276Z,6.60
2019-02-16T02:07:40.682Z,6.50
2019-02-16T02:10:08.429Z,6.50
2019-02-16T02:12:35.760Z,6.50
2019-02-16T02:15:03.184Z,6.50
2019-02-16T02:17:30.513Z,6.50
2019-02-16T02:19:57.832Z,6.50
2019-02-16T02:22:25.226Z,6.40
2019-02-16T02:24:52.534Z,6.40
2019-02-16T02:27:19.867Z,6.40
2019-02-16T02:29:47.266Z,6.40
2019-02-16T02:32:14.655Z,6.30
2019-02-16T02:34:42.018Z,6.40
2019-02-16T02:37:09.736Z,6.30
2019-02-16T02:39:37.063Z,6.30
2019-02-16T02:42:04.366Z,6.30
2019-02-16T02:44:31.589Z,6.30
2019-02-16T02:46:58.980Z,6.30
2019-02-16T02:49:26.297Z,6.20
2019-02-16T02:51:53.604Z,6.30
2019-02-16T02:54:20.925Z,6.30
2019-02-16T02:56:48.248Z,6.20
2019-02-16T02:59:15.700Z,6.20
2019-02-16T03:01:43.019Z,6.20
2019-02-16T03:04:10.314Z,6.10
2019-02-16T03:06:37.654Z,6.20
2019-02-16T03:09:07.013Z,6.20
2019-02-16T03:11:34.330Z,6.10
2019-02-16T03:14:01.666Z,6.10
2019-02-16T03:16:28.994Z,6.10
2019-02-16T03:18:56.398Z,6.10
2019-02-16T03:21:23.704Z,6.10
2019-02-16T03:23:51.097Z,6.00
2019-02-16T03:27:08.426Z,6.00
2019-02-16T03:30:05.160Z,6.10
2019-02-16T03:32:59.017Z,6.00
2019-02-16T03:36:00.404Z,5.90
2019-02-16T03:38:37.411Z,6.10
2019-02-16T03:41:04.769Z,6.00
2019-02-16T03:43:32.231Z,6.10
2019-02-16T03:45:59.620Z,6.10
2019-02-16T03:48:26.903Z,5.90
2019-02-16T03:50:54.227Z,5.90
2019-02-16T03:53:21.608Z,6.10
2019-02-16T03:55:49.046Z,6.20
2019-02-16T03:58:16.415Z,6.00
2019-02-16T04:00:43.762Z,6.10
2019-02-16T04:03:11.348Z,6.20
2019-02-16T04:05:38.676Z,6.30
2019-02-16T04:08:06.010Z,6.30
2019-02-16T04:10:33.305Z,6.30
2019-02-16T04:13:00.652Z,6.30
2019-02-16T04:15:28.041Z,6.30
2019-02-16T04:17:55.359Z,6.30
2019-02-16T04:20:22.766Z,6.30
2019-02-16T04:22:50.132Z,6.20
2019-02-16T04:25:17.429Z,6.30
2019-02-16T04:27:45.154Z,6.30
2019-02-16T04:30:12.589Z,6.30
2019-02-16T04:32:39.897Z,6.20
2019-02-16T04:35:07.345Z,6.20
2019-02-16T04:37:34.681Z,6.20
2019-02-16T04:40:02.050Z,6.10
2019-02-16T04:42:29.803Z,6.20
2019-02-16T04:44:57.498Z,6.10
2019-02-16T04:47:24.919Z,6.10
2019-02-16T04:49:52.184Z,6.10
2019-02-16T04:52:19.487Z,6.10
2019-02-16T04:54:46.902Z,6.10
2019-02-16T04:57:14.308Z,6.10
2019-02-16T04:59:41.624Z,6.10
2019-02-16T05:02:08.936Z,6.10
2019-02-16T05:04:36.116Z,6.10
2019-02-16T05:07:03.480Z,6.10
2019-02-16T05:09:30.801Z,6.10
2019-02-16T05:11:58.010Z,6.10
2019-02-16T05:14:25.339Z,6.10
2019-02-16T05:16:52.620Z,6.10
2019-02-16T05:19:19.997Z,6.00
2019-02-16T05:21:47.327Z,6.00
2019-02-16T05:24:15.045Z,6.00
2019-02-16T05:26:42.345Z,6.10
2019-02-16T05:29:09.672Z,6.10
2019-02-16T05:31:37.141Z,6.00
2019-02-16T05:34:04.517Z,6.00
2019-02-16T05:36:31.889Z,6.00
2019-02-16T05:38:59.274Z,5.90
2019-02-16T05:41:26.571Z,5.90
2019-02-16T05:43:53.888Z,5.90
2019-02-16T05:46:24.577Z,5.90
2019-02-16T05:48:51.255Z,5.90
2019-02-16T05:51:18.617Z,5.90
2019-02-16T05:53:46.245Z,5.90
2019-02-16T05:56:13.577Z,5.90
2019-02-16T05:58:40.903Z,5.90
2019-02-16T06:01:08.360Z,5.80
2019-02-16T06:03:35.727Z,5.80
2019-02-16T06:06:03.052Z,5.70
2019-02-16T06:08:30.477Z,5.70
2019-02-16T06:10:58.100Z,5.70
2019-02-16T06:13:25.531Z,5.60
2019-02-16T06:15:52.964Z,5.60
2019-02-16T06:18:20.401Z,5.60
2019-02-16T06:20:48.125Z,5.50
2019-02-16T06:23:15.647Z,5.50
2019-02-16T06:25:42.969Z,5.50
2019-02-16T06:28:10.403Z,5.60
2019-02-16T06:30:38.034Z,5.60
2019-02-16T06:33:05.355Z,5.60
2019-02-16T06:35:36.782Z,5.70
2019-02-16T06:38:04.116Z,5.70
2019-02-16T06:40:31.410Z,5.70
2019-02-16T06:42:58.845Z,5.70
2019-02-16T06:45:26.282Z,5.60
2019-02-16T06:47:53.970Z,5.70
2019-02-16T06:50:21.379Z,5.60
2019-02-16T06:52:48.946Z,5.70
2019-02-16T06:55:16.348Z,5.70
2019-02-16T06:57:47.126Z,5.80
2019-02-16T07:00:16.471Z,5.70
2019-02-16T07:02:43.931Z,5.70
2019-02-16T07:05:11.362Z,5.70
2019-02-16T07:07:39.227Z,5.80
2019-02-16T07:10:07.217Z,5.70
2019-02-16T07:12:34.962Z,5.70
2019-02-16T07:15:02.323Z,5.80
2019-02-16T07:17:49.299Z,5.80
2019-02-16T07:20:18.883Z,5.80
2019-02-16T07:22:46.599Z,5.80
2019-02-16T07:25:14.002Z,5.80
2019-02-16T07:27:41.379Z,5.90
2019-02-16T07:30:09.324Z,5.90
2019-02-16T07:32:36.733Z,5.90
2019-02-16T07:35:06.200Z,5.90
2019-02-16T07:37:33.512Z,5.90
2019-02-16T07:40:00.917Z,6.00
2019-02-16T07:42:48.276Z,6.00
2019-02-16T07:45:40.248Z,6.10
2019-02-16T07:48:39.131Z,6.10
2019-02-16T07:51:26.342Z,6.10
2019-02-16T07:54:09.275Z,6.10
2019-02-16T07:56:45.771Z,6.20
2019-02-16T07:59:24.944Z,6.20
2019-02-16T08:01:59.738Z,5.90
2019-02-16T08:04:45.166Z,6.10
2019-02-16T08:07:38.242Z,6.00
2019-02-16T08:10:25.275Z,6.10
2019-02-16T08:13:01.368Z,6.30
2019-02-16T08:15:54.446Z,6.40
2019-02-16T08:18:39.824Z,6.10
2019-02-16T08:21:29.736Z,6.10
2019-02-16T08:24:16.597Z,6.30
2019-02-16T08:27:12.038Z,6.40
2019-02-16T08:30:01.745Z,6.50
2019-02-16T08:32:47.288Z,6.30
2019-02-16T08:35:39.871Z,6.50
2019-02-16T08:38:15.407Z,6.50
2019-02-16T08:40:49.336Z,6.70
2019-02-16T08:43:34.216Z,6.70
2019-02-16T08:46:26.975Z,6.70
2019-02-16T08:49:04.533Z,6.80
2019-02-16T08:51:47.575Z,7.00
2019-02-16T08:54:34.419Z,7.20
2019-02-16T08:57:13.594Z,7.30
2019-02-16T08:59:58.778Z,7.00
2019-02-16T09:02:53.222Z,7.20
2019-02-16T09:05:58.196Z,7.20
2019-02-16T09:08:43.973Z,7.30
2019-02-16T09:11:22.317Z,7.30
2019-02-16T09:13:58.827Z,7.50
2019-02-16T09:16:40.040Z,7.30
2019-02-16T09:19:25.763Z,7.40
2019-02-16T09:22:08.259Z,7.50
2019-02-16T09:24:50.739Z,7.70
2019-02-16T09:27:39.642Z,7.50
2019-02-16T09:30:28.453Z,7.50
2019-02-16T09:33:15.337Z,7.30
2019-02-16T09:36:13.933Z,7.50
2019-02-16T09:38:49.951Z,7.50
2019-02-16T09:41:35.508Z,7.70
2019-02-16T09:44:28.576Z,7.90
2019-02-16T09:47:14.423Z,8.00
2019-02-16T09:50:00.340Z,8.00
2019-02-16T09:52:44.898Z,8.20
2019-02-16T09:55:21.169Z,8.20
2019-02-16T09:58:10.962Z,8.30
2019-02-16T10:00:43.604Z,8.60
2019-02-16T10:03:45.545Z,8.70
2019-02-16T10:06:31.191Z,8.90
2019-02-16T10:09:09.978Z,9.10
2019-02-16T10:12:11.939Z,9.20
2019-02-16T10:14:48.302Z,8.90
2019-02-16T10:17:33.759Z,9.10
2019-02-16T10:20:26.707Z,8.90
2019-02-16T10:23:12.290Z,8.90
2019-02-16T10:26:03.346Z,8.80
2019-02-16T10:28:50.526Z,9.10
2019-02-16T10:31:40.774Z,9.30
2019-02-16T10:34:27.663Z,9.30
2019-02-16T10:37:12.965Z,9.30
2019-02-16T10:39:55.228Z,9.50
2019-02-16T10:42:34.707Z,9.80
2019-02-16T10:45:21.624Z,9.90
2019-02-16T10:48:07.515Z,10.00
2019-02-16T10:50:45.242Z,10.00
2019-02-16T10:53:24.102Z,10.10
2019-02-16T10:56:23.603Z,10.30
2019-02-16T10:59:10.527Z,10.30
2019-02-16T11:01:56.162Z,10.10
2019-02-16T11:04:38.214Z,10.30
2019-02-16T11:07:12.300Z,10.40
2019-02-16T11:09:59.380Z,10.60
2019-02-16T11:12:49.304Z,10.90
2019-02-16T11:15:26.106Z,11.30
2019-02-16T11:18:16.074Z,11.40
2019-02-16T11:21:01.819Z,11.40
2019-02-16T11:23:48.657Z,11.30
2019-02-16T11:26:30.045Z,11.30
2019-02-16T11:29:15.945Z,11.60
2019-02-16T11:31:54.861Z,11.70
2019-02-16T11:34:50.615Z,11.70
2019-02-16T11:37:40.439Z,11.70
2019-02-16T11:40:27.385Z,12.00
2019-02-16T11:43:14.847Z,12.40
2019-02-16T11:45:48.017Z,12.50
2019-02-16T11:48:44.015Z,12.60
2019-02-16T11:51:31.771Z,12.60
2019-02-16T11:54:09.869Z,12.90
2019-02-16T11:56:59.119Z,12.80
2019-02-16T11:59:51.742Z,13.00
2019-02-16T12:02:27.940Z,13.20
2019-02-16T12:05:14.773Z,13.30
2019-02-16T12:08:05.870Z,13.50
2019-02-16T12:10:51.351Z,13.60
2019-02-16T12:13:34.066Z,13.80
2019-02-16T12:16:33.321Z,13.70
2019-02-16T12:19:35.421Z,13.70
2019-02-16T12:22:37.658Z,13.80
2019-02-16T12:25:24.595Z,13.70
2019-02-16T12:28:17.248Z,14.00
2019-02-16T12:30:57.971Z,14.40
2019-02-16T12:33:32.267Z,13.90
2019-02-16T12:36:24.752Z,14.00
2019-02-16T12:39:12.062Z,14.30
2019-02-16T12:41:57.558Z,14.60
2019-02-16T12:44:29.259Z,14.70
2019-02-16T12:47:12.173Z,14.80
2019-02-16T12:50:01.306Z,14.70
2019-02-16T12:52:51.757Z,14.60
2019-02-16T12:55:34.453Z,14.80
2019-02-16T12:58:19.239Z,15.10
2019-02-16T13:01:14.951Z,15.20
2019-02-16T13:04:00.756Z,15.60
2019-02-16T13:06:50.391Z,16.50
2019-02-16T13:09:49.284Z,16.80
2019-02-16T13:12:23.009Z,17.50
2019-02-16T13:15:15.713Z,19.20
2019-02-16T13:18:05.661Z,20.20
2019-02-16T13:21:04.630Z,20.80
2019-02-16T13:23:49.790Z,21.80
2019-02-16T13:26:31.215Z,22.50
2019-02-16T13:29:21.357Z,23.10
2019-02-16T13:32:17.481Z,23.90
2019-02-16T13:34:53.567Z,23.80
2019-02-16T13:37:37.402Z,24.10
2019-02-16T13:40:24.277Z,24.50
2019-02-16T13:43:22.003Z,25.40
2019-02-16T13:45:55.970Z,26.40
2019-02-16T13:48:27.773Z,27.30
2019-02-16T13:51:12.778Z,28.30
2019-02-16T13:54:02.679Z,28.80
2019-02-16T13:56:49.627Z,29.40
2019-02-16T13:59:36.509Z,29.90
2019-02-16T14:02:23.430Z,30.10
2019-02-16T14:05:10.328Z,30.30
2019-02-16T14:07:45.771Z,30.30
2019-02-16T14:10:32.742Z,30.60
2019-02-16T14:13:15.550Z,30.40
2019-02-16T14:16:05.230Z,30.20
2019-02-16T14:18:32.683Z,30.00
2019-02-16T14:21:00.170Z,29.80
2019-02-16T14:23:28.574Z,30.10
2019-02-16T14:25:56.128Z,30.40
2019-02-16T14:28:23.880Z,30.30
2019-02-16T14:30:51.539Z,28.80
2019-02-16T14:33:18.891Z,26.70
2019-02-16T14:35:46.339Z,25.90
2019-02-16T14:38:33.588Z,26.20
2019-02-16T14:41:01.316Z,26.70
2019-02-16T14:43:28.672Z,26.50
2019-02-16T14:45:56.303Z,26.60
2019-02-16T14:48:23.621Z,26.60
2019-02-16T14:50:51.033Z,26.40
2019-02-16T14:53:18.473Z,25.50
2019-02-16T14:55:52.278Z,25.00
2019-02-16T14:58:15.217Z,24.60
2019-02-16T15:00:42.979Z,24.00
2019-02-16T15:03:10.334Z,23.40
2019-02-16T15:05:37.853Z,23.00
2019-02-16T15:08:05.594Z,22.70
2019-02-16T15:10:33.050Z,22.30
2019-02-16T15:13:00.581Z,22.10
2019-02-16T15:15:28.075Z,21.70
2019-02-16T15:17:55.507Z,21.30
2019-02-16T15:20:23.003Z,20.70
2019-02-16T15:22:50.388Z,20.30
2019-02-16T15:25:17.794Z,20.10
2019-02-16T15:27:45.231Z,19.60
2019-02-16T15:30:14.573Z,19.50
2019-02-16T15:32:42.325Z,19.20
2019-02-16T15:35:10.277Z,19.20
2019-02-16T15:37:37.674Z,18.90
2019-02-16T15:40:05.183Z,18.80
2019-02-16T15:42:32.638Z,18.60
2019-02-16T15:45:00.014Z,18.40
2019-02-16T15:47:27.515Z,18.30
2019-02-16T15:49:54.914Z,18.10
2019-02-16T15:52:22.374Z,18.00
2019-02-16T15:54:50.668Z,18.00
2019-02-16T15:57:18.130Z,17.90
2019-02-16T15:59:45.609Z,17.70
2019-02-16T16:02:13.084Z,17.50
2019-02-16T16:04:40.504Z,17.30
2019-02-16T16:07:13.389Z,17.20
2019-02-16T16:09:57.659Z,17.10
2019-02-16T16:12:43.386Z,16.90
2019-02-16T16:15:30.363Z,16.70
2019-02-16T16:18:20.106Z,16.50
2019-02-16T16:21:05.767Z,16.30
2019-02-16T16:23:55.670Z,16.20
2019-02-16T16:26:37.308Z,16.00
2019-02-16T16:29:24.176Z,15.80
2019-02-16T16:32:01.915Z,15.70
2019-02-16T16:34:45.850Z,15.50
2019-02-16T16:37:42.001Z,15.40
2019-02-16T16:40:28.940Z,15.30
2019-02-16T16:43:14.647Z,15.10
2019-02-16T16:47:51.863Z,14.50
2019-02-16T16:50:35.620Z,14.30
2019-02-16T16:53:21.114Z,13.70
2019-02-16T16:56:02.214Z,13.30
2019-02-16T16:58:52.189Z,13.00
2019-02-16T17:01:41.875Z,12.80
2019-02-16T17:04:34.229Z,12.50
2019-02-16T17:07:24.902Z,12.30
2019-02-16T17:10:21.100Z,12.10
2019-02-16T17:12:55.332Z,11.90
2019-02-16T17:15:48.054Z,11.80
2019-02-16T17:18:34.958Z,11.70
2019-02-16T17:21:25.056Z,11.50
2019-02-16T17:24:03.917Z,11.40
2019-02-16T17:26:55.756Z,11.20
2019-02-16T17:29:51.608Z,11.10
2019-02-16T17:32:33.881Z,10.90
2019-02-16T17:35:19.650Z,10.90
2019-02-16T17:38:05.180Z,10.70
2019-02-16T17:40:48.451Z,10.60
2019-02-16T17:43:42.582Z,10.50
2019-02-16T17:46:28.392Z,10.40
2019-02-16T17:49:18.655Z,10.30
2019-02-16T17:52:04.245Z,10.20
2019-02-16T17:54:53.068Z,10.00
2019-02-16T17:57:54.989Z,10.00
2019-02-16T18:00:32.364Z,9.80
2019-02-16T18:03:08.213Z,9.80
2019-02-16T18:05:55.136Z,9.60
2019-02-16T18:08:44.748Z,9.50
2019-02-16T18:11:23.263Z,9.50
2019-02-16T18:14:08.679Z,9.30
2019-02-16T18:16:55.705Z,9.20
2019-02-16T18:19:28.350Z,9.10
2019-02-16T18:22:21.635Z,9.10
2019-02-16T18:25:02.037Z,9.00
2019-02-16T18:27:55.755Z,8.90
2019-02-16T18:30:41.449Z,8.80
2019-02-16T18:33:26.503Z,8.70
2019-02-16T18:36:04.017Z,8.70
2019-02-16T18:38:38.715Z,8.70
2019-02-16T18:41:37.692Z,8.60
2019-02-16T18:44:21.060Z,8.50
2019-02-16T18:47:07.905Z,8.30
2019-02-16T18:50:01.214Z,8.30
2019-02-16T18:52:47.147Z,8.20
2019-02-16T18:55:32.970Z,8.10
2019-02-16T18:58:08.229Z,8.00
2019-02-16T19:00:46.288Z,7.90
2019-02-16T19:03:42.543Z,7.90
2019-02-16T19:06:44.992Z,7.80
2019-02-16T19:09:40.761Z,7.70
2019-02-16T19:12:26.171Z,7.60
2019-02-16T19:15:00.342Z,7.50
2019-02-16T19:17:50.327Z,7.50
2019-02-16T19:20:37.309Z,7.40
2019-02-16T19:23:32.331Z,7.20
2019-02-16T19:26:16.598Z,7.20
2019-02-16T19:28:55.938Z,7.10
2019-02-16T19:31:34.097Z,7.10
2019-02-16T19:34:36.469Z,7.00
2019-02-16T19:37:23.504Z,7.00
2019-02-16T19:40:10.481Z,6.90
2019-02-16T19:42:54.383Z,6.90
2019-02-16T19:45:44.233Z,6.80
2019-02-16T19:48:34.368Z,6.70
2019-02-16T19:51:39.630Z,6.60
2019-02-16T19:54:17.314Z,6.50
2019-02-16T19:57:13.818Z,6.60
2019-02-16T19:59:54.014Z,6.50
2019-02-16T20:02:53.239Z,6.40
2019-02-16T20:05:49.168Z,6.20
2019-02-16T20:08:31.722Z,6.10
2019-02-16T20:11:18.760Z,6.10
2019-02-16T20:14:05.766Z,6.00
2019-02-16T20:16:52.762Z,6.00
2019-02-16T20:19:51.784Z,6.00
2019-02-16T20:22:30.139Z,6.00
2019-02-16T20:25:16.065Z,5.90
2019-02-16T20:27:49.976Z,5.80
2019-02-16T20:30:39.694Z,5.80
2019-02-16T20:33:26.795Z,5.70
2019-02-16T20:36:05.635Z,5.70
2019-02-16T20:38:55.647Z,5.60
2019-02-16T20:41:41.215Z,5.70
2019-02-16T20:44:27.237Z,5.70
2019-02-16T20:47:07.336Z,5.50
2019-02-16T20:49:42.692Z,5.50
2019-02-16T20:52:22.600Z,5.50
2019-02-16T20:54:56.742Z,5.40
2019-02-16T20:57:47.638Z,5.40
2019-02-16T21:00:30.288Z,5.40
2019-02-16T21:03:06.532Z,5.30
2019-02-16T21:05:53.482Z,5.20
2019-02-16T21:08:58.378Z,5.20
2019-02-16T21:11:45.238Z,5.20
2019-02-16T21:14:23.403Z,5.10
2019-02-16T21:17:09.009Z,5.10
2019-02-16T21:20:11.279Z,5.10
2019-02-16T21:22:49.340Z,5.00
2019-02-16T21:25:38.118Z,4.80
2019-02-16T21:28:40.089Z,4.80
2019-02-16T21:31:24.811Z,4.80
2019-02-16T21:34:06.030Z,4.70
2019-02-16T21:36:41.146Z,4.60
2019-02-16T21:39:17.259Z,4.60
2019-02-16T21:41:56.013Z,4.60
2019-02-16T21:44:44.242Z,4.60
2019-02-16T21:47:37.340Z,4.50
2019-02-16T21:50:27.329Z,4.40
2019-02-16T21:53:23.301Z,4.40
2019-02-16T21:56:10.288Z,4.40
2019-02-16T21:58:56.272Z,4.30
2019-02-16T22:01:33.542Z,4.20
2019-02-16T22:04:26.621Z,4.20
2019-02-16T22:07:07.154Z,4.20
2019-02-16T22:09:46.995Z,4.10
2019-02-16T22:12:48.821Z,4.10
2019-02-16T22:15:16.277Z,4.10
2019-02-16T22:17:43.755Z,4.10
2019-02-16T22:20:11.181Z,4.00
2019-02-16T22:22:39.044Z,4.00
2019-02-16T22:25:06.453Z,4.00
2019-02-16T22:27:33.965Z,4.00
2019-02-16T22:30:01.806Z,3.90
2019-02-16T22:32:29.233Z,3.80
2019-02-16T22:34:56.976Z,3.80
2019-02-16T22:37:24.338Z,3.70
2019-02-16T22:39:51.755Z,3.70
2019-02-16T22:42:19.185Z,3.70
2019-02-16T22:44:46.906Z,3.80
2019-02-16T22:47:14.690Z,3.70
2019-02-16T22:49:42.036Z,3.70
2019-02-16T22:52:09.453Z,3.70
2019-02-16T22:54:36.738Z,3.60
2019-02-16T22:57:04.445Z,3.70
2019-02-16T22:59:31.855Z,3.70
2019-02-16T23:01:59.275Z,3.60
2019-02-16T23:04:27.133Z,3.60
2019-02-16T23:06:54.566Z,3.50
2019-02-16T23:09:26.968Z,3.40
2019-02-16T23:11:54.377Z,3.40
2019-02-16T23:14:24.050Z,3.30
2019-02-16T23:16:51.110Z,3.30
2019-02-16T23:19:18.531Z,3.30
2019-02-16T23:21:45.954Z,3.30
2019-02-16T23:24:13.460Z,3.30
2019-02-16T23:26:40.895Z,3.30
2019-02-16T23:29:08.363Z,3.20
2019-02-16T23:31:35.709Z,3.10
2019-02-16T23:34:03.560Z,3.20
2019-02-16T23:36:30.985Z,3.20
2019-02-16T23:38:58.624Z,3.10
2019-02-16T23:41:26.082Z,3.10
2019-02-16T23:43:53.853Z,3.00
2019-02-16T23:46:21.511Z,3.00
2019-02-16T23:48:48.964Z,3.00
2019-02-16T23:51:16.389Z,2.90
2019-02-16T23:53:43.698Z,3.00
2019-02-16T23:56:11.040Z,2.90
2019-02-16T23:58:48.708Z,2.90
